sensor_id;sensor_type;location;lat;lon;timestamp;temperature;humidity
16728;DHT22;8482;54.396;18.590;2023-04-26T04:37:00;8.60;99.90
16728;DHT22;8482;54.396;18.590;2023-04-26T04:39:26;8.60;99.90
16728;DHT22;8482;54.396;18.590;2023-04-26T04:41:52;8.60;99.90
16728;DHT22;8482;54.396;18.590;2023-04-26T04:44:18;8.60;99.90
16728;DHT22;8482;54.396;18.590;2023-04-26T04:46:44;8.70;99.90
16728;DHT22;8482;54.396;18.590;2023-04-26T04:49:11;8.60;99.90
16728;DHT22;8482;54.396;18.590;2023-04-26T04:51:37;8.60;99.90
16728;DHT22;8482;54.396;18.590;2023-04-26T04:54:17;8.60;99.90
16728;DHT22;8482;54.396;18.590;2023-04-26T04:56:43;8.60;99.90
16728;DHT22;8482;54.396;18.590;2023-04-26T04:59:10;8.60;99.90
16728;DHT22;8482;54.396;18.590;2023-04-26T05:01:36;8.60;99.90
16728;DHT22;8482;54.396;18.590;2023-04-26T05:04:03;8.50;99.90
16728;DHT22;8482;54.396;18.590;2023-04-26T05:06:30;8.50;99.90
16728;DHT22;8482;54.396;18.590;2023-04-26T05:08:59;8.60;99.90
16728;DHT22;8482;54.396;18.590;2023-04-26T05:11:26;8.60;99.90
16728;DHT22;8482;54.396;18.590;2023-04-26T05:13:52;8.60;99.90
16728;DHT22;8482;54.396;18.590;2023-04-26T05:16:18;8.60;99.90
16728;DHT22;8482;54.396;18.590;2023-04-26T05:18:44;8.60;99.90
16728;DHT22;8482;54.396;18.590;2023-04-26T05:21:10;8.60;99.90
16728;DHT22;8482;54.396;18.590;2023-04-26T05:23:36;8.60;99.90
16728;DHT22;8482;54.396;18.590;2023-04-26T05:26:04;8.60;99.90
16728;DHT22;8482;54.396;18.590;2023-04-26T05:28:31;8.60;99.90
16728;DHT22;8482;54.396;18.590;2023-04-26T05:30:58;8.60;99.90
16728;DHT22;8482;54.396;18.590;2023-04-26T05:33:24;8.60;99.90
16728;DHT22;8482;54.396;18.590;2023-04-26T05:35:50;8.60;99.90
16728;DHT22;8482;54.396;18.590;2023-04-26T05:38:18;8.60;99.90
16728;DHT22;8482;54.396;18.590;2023-04-26T05:40:45;8.60;99.90
16728;DHT22;8482;54.396;18.590;2023-04-26T05:43:13;8.70;99.90
16728;DHT22;8482;54.396;18.590;2023-04-26T05:45:39;8.60;99.90
16728;DHT22;8482;54.396;18.590;2023-04-26T05:48:05;8.70;99.90
16728;DHT22;8482;54.396;18.590;2023-04-26T05:50:31;8.70;99.90
16728;DHT22;8482;54.396;18.590;2023-04-26T05:52:57;8.70;99.90
16728;DHT22;8482;54.396;18.590;2023-04-26T05:55:23;8.70;99.90
16728;DHT22;8482;54.396;18.590;2023-04-26T05:57:49;8.70;99.90
16728;DHT22;8482;54.396;18.590;2023-04-26T06:00:15;8.70;99.90
16728;DHT22;8482;54.396;18.590;2023-04-26T06:02:43;8.70;99.90
16728;DHT22;8482;54.396;18.590;2023-04-26T06:05:10;8.80;99.90
16728;DHT22;8482;54.396;18.590;2023-04-26T06:07:36;8.80;99.90
16728;DHT22;8482;54.396;18.590;2023-04-26T06:10:02;8.80;99.90
16728;DHT22;8482;54.396;18.590;2023-04-26T06:12:28;8.80;99.90
16728;DHT22;8482;54.396;18.590;2023-04-26T06:14:54;8.80;99.90
16728;DHT22;8482;54.396;18.590;2023-04-26T06:17:19;8.80;99.90
16728;DHT22;8482;54.396;18.590;2023-04-26T06:19:45;8.80;99.90
16728;DHT22;8482;54.396;18.590;2023-04-26T06:22:11;8.80;99.90
16728;DHT22;8482;54.396;18.590;2023-04-26T06:24:37;8.80;99.90
16728;DHT22;8482;54.396;18.590;2023-04-26T06:27:03;8.80;99.90
16728;DHT22;8482;54.396;18.590;2023-04-26T06:29:31;8.80;99.90
16728;DHT22;8482;54.396;18.590;2023-04-26T06:31:58;8.80;99.90
16728;DHT22;8482;54.396;18.590;2023-04-26T06:34:23;8.80;99.90
16728;DHT22;8482;54.396;18.590;2023-04-26T06:36:49;8.80;99.90
16728;DHT22;8482;54.396;18.590;2023-04-26T06:39:15;8.90;99.90
16728;DHT22;8482;54.396;18.590;2023-04-26T06:41:41;8.90;99.90
16728;DHT22;8482;54.396;18.590;2023-04-26T06:44:07;8.90;99.70
16728;DHT22;8482;54.396;18.590;2023-04-26T06:46:33;8.90;99.60
16728;DHT22;8482;54.396;18.590;2023-04-26T06:49:00;8.90;99.30
16728;DHT22;8482;54.396;18.590;2023-04-26T06:51:26;8.90;99.40
16728;DHT22;8482;54.396;18.590;2023-04-26T06:53:54;8.90;99.20
16728;DHT22;8482;54.396;18.590;2023-04-26T06:56:23;8.90;98.90
16728;DHT22;8482;54.396;18.590;2023-04-26T06:59:02;8.90;99.00
16728;DHT22;8482;54.396;18.590;2023-04-26T07:01:30;9.00;98.90
16728;DHT22;8482;54.396;18.590;2023-04-26T07:04:02;9.00;98.50
16728;DHT22;8482;54.396;18.590;2023-04-26T07:06:29;9.00;98.60
16728;DHT22;8482;54.396;18.590;2023-04-26T07:08:59;9.00;98.40
16728;DHT22;8482;54.396;18.590;2023-04-26T07:11:27;9.00;98.50
16728;DHT22;8482;54.396;18.590;2023-04-26T07:13:53;9.00;98.60
16728;DHT22;8482;54.396;18.590;2023-04-26T07:16:20;9.00;98.60
16728;DHT22;8482;54.396;18.590;2023-04-26T07:18:45;9.00;98.80
16728;DHT22;8482;54.396;18.590;2023-04-26T07:21:14;9.00;98.70
16728;DHT22;8482;54.396;18.590;2023-04-26T07:23:40;9.10;98.60
16728;DHT22;8482;54.396;18.590;2023-04-26T07:26:09;9.10;98.60
16728;DHT22;8482;54.396;18.590;2023-04-26T07:28:35;9.10;98.60
16728;DHT22;8482;54.396;18.590;2023-04-26T07:31:01;9.10;98.50
16728;DHT22;8482;54.396;18.590;2023-04-26T07:33:27;9.10;98.30
16728;DHT22;8482;54.396;18.590;2023-04-26T07:35:58;9.10;98.30
16728;DHT22;8482;54.396;18.590;2023-04-26T07:38:26;9.10;98.50
16728;DHT22;8482;54.396;18.590;2023-04-26T07:40:52;9.10;98.60
16728;DHT22;8482;54.396;18.590;2023-04-26T07:43:19;9.10;98.70
16728;DHT22;8482;54.396;18.590;2023-04-26T07:45:45;9.10;98.50
16728;DHT22;8482;54.396;18.590;2023-04-26T07:48:11;9.10;98.40
16728;DHT22;8482;54.396;18.590;2023-04-26T07:50:37;9.20;98.00
16728;DHT22;8482;54.396;18.590;2023-04-26T07:53:03;9.20;98.30
16728;DHT22;8482;54.396;18.590;2023-04-26T07:55:29;9.20;98.40
16728;DHT22;8482;54.396;18.590;2023-04-26T07:57:55;9.20;98.60
16728;DHT22;8482;54.396;18.590;2023-04-26T08:00:22;9.20;98.40
16728;DHT22;8482;54.396;18.590;2023-04-26T08:02:48;9.20;98.50
16728;DHT22;8482;54.396;18.590;2023-04-26T08:05:15;9.20;98.60
16728;DHT22;8482;54.396;18.590;2023-04-26T08:07:41;9.20;98.50
16728;DHT22;8482;54.396;18.590;2023-04-26T08:10:08;9.20;98.60
16728;DHT22;8482;54.396;18.590;2023-04-26T08:12:36;9.20;98.60
16728;DHT22;8482;54.396;18.590;2023-04-26T08:15:04;9.20;98.80
16728;DHT22;8482;54.396;18.590;2023-04-26T08:17:31;9.20;98.80
16728;DHT22;8482;54.396;18.590;2023-04-26T08:19:57;9.20;98.90
16728;DHT22;8482;54.396;18.590;2023-04-26T08:22:24;9.20;99.00
16728;DHT22;8482;54.396;18.590;2023-04-26T08:24:52;9.20;99.00
16728;DHT22;8482;54.396;18.590;2023-04-26T08:27:19;9.20;99.00
16728;DHT22;8482;54.396;18.590;2023-04-26T08:29:46;9.30;99.10
16728;DHT22;8482;54.396;18.590;2023-04-26T08:32:12;9.30;99.30
16728;DHT22;8482;54.396;18.590;2023-04-26T08:34:38;9.30;99.90
16728;DHT22;8482;54.396;18.590;2023-04-26T08:37:06;9.20;99.90
16728;DHT22;8482;54.396;18.590;2023-04-26T08:39:34;9.10;99.90
16728;DHT22;8482;54.396;18.590;2023-04-26T08:42:10;9.10;99.90
16728;DHT22;8482;54.396;18.590;2023-04-26T08:44:41;9.00;99.90
16728;DHT22;8482;54.396;18.590;2023-04-26T08:47:33;8.90;99.90
16728;DHT22;8482;54.396;18.590;2023-04-26T08:50:06;8.80;99.90
16728;DHT22;8482;54.396;18.590;2023-04-26T08:52:34;8.70;99.90
16728;DHT22;8482;54.396;18.590;2023-04-26T08:55:04;8.70;99.90
16728;DHT22;8482;54.396;18.590;2023-04-26T08:57:32;8.60;99.90
16728;DHT22;8482;54.396;18.590;2023-04-26T08:59:58;8.60;99.90
16728;DHT22;8482;54.396;18.590;2023-04-26T09:02:26;8.60;99.90
16728;DHT22;8482;54.396;18.590;2023-04-26T09:04:52;8.60;99.90
16728;DHT22;8482;54.396;18.590;2023-04-26T09:07:31;8.60;99.90
16728;DHT22;8482;54.396;18.590;2023-04-26T09:10:00;8.50;99.90
16728;DHT22;8482;54.396;18.590;2023-04-26T09:12:29;8.50;99.90
16728;DHT22;8482;54.396;18.590;2023-04-26T09:14:55;8.50;99.90
16728;DHT22;8482;54.396;18.590;2023-04-26T09:17:31;8.60;99.90
16728;DHT22;8482;54.396;18.590;2023-04-26T09:20:26;8.60;99.90
16728;DHT22;8482;54.396;18.590;2023-04-26T09:23:03;8.60;99.90
16728;DHT22;8482;54.396;18.590;2023-04-26T09:25:31;8.70;99.90
16728;DHT22;8482;54.396;18.590;2023-04-26T09:27:58;8.70;99.90
16728;DHT22;8482;54.396;18.590;2023-04-26T09:30:26;8.70;99.90
16728;DHT22;8482;54.396;18.590;2023-04-26T09:32:57;8.70;99.90
16728;DHT22;8482;54.396;18.590;2023-04-26T09:35:41;8.70;99.90
16728;DHT22;8482;54.396;18.590;2023-04-26T09:38:14;8.70;99.90
16728;DHT22;8482;54.396;18.590;2023-04-26T09:40:49;8.80;99.90
16728;DHT22;8482;54.396;18.590;2023-04-26T09:43:20;8.80;99.90
16728;DHT22;8482;54.396;18.590;2023-04-26T09:48:31;8.90;99.90
16728;DHT22;8482;54.396;18.590;2023-04-26T09:51:09;8.90;99.90
16728;DHT22;8482;54.396;18.590;2023-04-26T09:53:41;9.00;99.90
16728;DHT22;8482;54.396;18.590;2023-04-26T09:56:13;9.00;99.90
16728;DHT22;8482;54.396;18.590;2023-04-26T10:01:13;9.00;99.90
16728;DHT22;8482;54.396;18.590;2023-04-26T10:03:40;9.00;99.90
16728;DHT22;8482;54.396;18.590;2023-04-26T10:06:08;9.00;99.90
16728;DHT22;8482;54.396;18.590;2023-04-26T10:08:35;9.00;99.90
16728;DHT22;8482;54.396;18.590;2023-04-26T10:11:03;9.00;99.90
16728;DHT22;8482;54.396;18.590;2023-04-26T10:13:34;9.00;99.90
16728;DHT22;8482;54.396;18.590;2023-04-26T10:16:01;9.00;99.90
16728;DHT22;8482;54.396;18.590;2023-04-26T10:18:28;9.00;99.90
16728;DHT22;8482;54.396;18.590;2023-04-26T10:20:57;9.00;99.90
16728;DHT22;8482;54.396;18.590;2023-04-26T10:23:27;9.00;99.90
16728;DHT22;8482;54.396;18.590;2023-04-26T10:25:54;9.00;99.90
16728;DHT22;8482;54.396;18.590;2023-04-26T10:31:05;9.00;99.90
16728;DHT22;8482;54.396;18.590;2023-04-26T10:33:32;8.90;99.90
16728;DHT22;8482;54.396;18.590;2023-04-26T10:36:01;9.00;99.90
16728;DHT22;8482;54.396;18.590;2023-04-26T10:38:41;9.00;99.90
16728;DHT22;8482;54.396;18.590;2023-04-26T10:42:16;9.00;99.90
16728;DHT22;8482;54.396;18.590;2023-04-26T10:44:48;9.00;99.90
16728;DHT22;8482;54.396;18.590;2023-04-26T10:47:21;9.00;99.90
16728;DHT22;8482;54.396;18.590;2023-04-26T10:49:49;9.00;99.90
16728;DHT22;8482;54.396;18.590;2023-04-26T10:52:18;9.00;99.90
16728;DHT22;8482;54.396;18.590;2023-04-26T10:54:52;9.00;99.90
16728;DHT22;8482;54.396;18.590;2023-04-26T10:57:21;8.90;99.90
16728;DHT22;8482;54.396;18.590;2023-04-26T11:02:53;8.80;99.90
16728;DHT22;8482;54.396;18.590;2023-04-26T11:05:49;8.80;99.90
16728;DHT22;8482;54.396;18.590;2023-04-26T11:08:19;8.80;99.90
16728;DHT22;8482;54.396;18.590;2023-04-26T11:11:05;8.70;99.90
16728;DHT22;8482;54.396;18.590;2023-04-26T11:13:41;8.70;99.90
16728;DHT22;8482;54.396;18.590;2023-04-26T11:16:15;8.80;99.90
16728;DHT22;8482;54.396;18.590;2023-04-26T11:18:46;8.80;99.90
16728;DHT22;8482;54.396;18.590;2023-04-26T11:21:13;8.90;99.90
16728;DHT22;8482;54.396;18.590;2023-04-26T11:23:42;9.00;99.90
16728;DHT22;8482;54.396;18.590;2023-04-26T11:26:18;9.10;99.90
16728;DHT22;8482;54.396;18.590;2023-04-26T11:28:43;9.20;99.90
16728;DHT22;8482;54.396;18.590;2023-04-26T11:31:10;9.20;99.90
16728;DHT22;8482;54.396;18.590;2023-04-26T11:33:40;9.30;99.90
16728;DHT22;8482;54.396;18.590;2023-04-26T11:36:06;9.50;99.90
16728;DHT22;8482;54.396;18.590;2023-04-26T11:38:32;9.60;99.90
16728;DHT22;8482;54.396;18.590;2023-04-26T11:41:00;9.70;99.90
16728;DHT22;8482;54.396;18.590;2023-04-26T11:43:38;9.80;99.90
16728;DHT22;8482;54.396;18.590;2023-04-26T11:46:05;9.80;99.90
16728;DHT22;8482;54.396;18.590;2023-04-26T11:48:34;9.90;99.90
16728;DHT22;8482;54.396;18.590;2023-04-26T11:51:05;9.90;99.90
16728;DHT22;8482;54.396;18.590;2023-04-26T11:53:40;10.00;99.90
16728;DHT22;8482;54.396;18.590;2023-04-26T11:56:17;10.00;99.90
16728;DHT22;8482;54.396;18.590;2023-04-26T11:58:48;10.00;99.90
16728;DHT22;8482;54.396;18.590;2023-04-26T12:01:28;10.00;99.90
16728;DHT22;8482;54.396;18.590;2023-04-26T12:03:57;10.10;99.90
16728;DHT22;8482;54.396;18.590;2023-04-26T12:06:50;10.20;99.90
16728;DHT22;8482;54.396;18.590;2023-04-26T12:09:22;10.40;99.90
16728;DHT22;8482;54.396;18.590;2023-04-26T12:11:59;10.40;99.40
16728;DHT22;8482;54.396;18.590;2023-04-26T12:14:37;10.50;97.70
16728;DHT22;8482;54.396;18.590;2023-04-26T12:17:05;10.50;97.00
16728;DHT22;8482;54.396;18.590;2023-04-26T12:19:36;10.50;95.80
16728;DHT22;8482;54.396;18.590;2023-04-26T12:22:03;10.60;95.60
16728;DHT22;8482;54.396;18.590;2023-04-26T12:24:32;10.60;95.70
16728;DHT22;8482;54.396;18.590;2023-04-26T12:27:01;10.70;94.80
16728;DHT22;8482;54.396;18.590;2023-04-26T12:29:29;10.80;95.00
16728;DHT22;8482;54.396;18.590;2023-04-26T12:31:59;10.80;95.30
16728;DHT22;8482;54.396;18.590;2023-04-26T12:34:26;11.00;95.00
16728;DHT22;8482;54.396;18.590;2023-04-26T12:36:52;11.10;94.70
16728;DHT22;8482;54.396;18.590;2023-04-26T12:39:19;11.20;92.80
16728;DHT22;8482;54.396;18.590;2023-04-26T12:41:45;11.20;91.00
16728;DHT22;8482;54.396;18.590;2023-04-26T12:44:11;11.20;90.80
16728;DHT22;8482;54.396;18.590;2023-04-26T12:46:38;11.20;91.40
16728;DHT22;8482;54.396;18.590;2023-04-26T12:49:04;11.20;91.20
16728;DHT22;8482;54.396;18.590;2023-04-26T12:51:30;11.20;91.50
16728;DHT22;8482;54.396;18.590;2023-04-26T12:53:56;11.30;91.20
16728;DHT22;8482;54.396;18.590;2023-04-26T12:56:23;11.40;90.90
16728;DHT22;8482;54.396;18.590;2023-04-26T12:58:49;11.30;90.80
16728;DHT22;8482;54.396;18.590;2023-04-26T13:01:16;11.40;90.90
16728;DHT22;8482;54.396;18.590;2023-04-26T13:03:42;11.30;90.90
16728;DHT22;8482;54.396;18.590;2023-04-26T13:06:09;11.30;90.90
16728;DHT22;8482;54.396;18.590;2023-04-26T13:08:35;11.30;90.80
16728;DHT22;8482;54.396;18.590;2023-04-26T13:11:00;11.30;90.30
16728;DHT22;8482;54.396;18.590;2023-04-26T13:13:26;11.30;89.80
16728;DHT22;8482;54.396;18.590;2023-04-26T13:15:52;11.30;88.00
16728;DHT22;8482;54.396;18.590;2023-04-26T13:18:18;11.20;88.50
16728;DHT22;8482;54.396;18.590;2023-04-26T13:20:44;11.20;88.00
16728;DHT22;8482;54.396;18.590;2023-04-26T13:23:10;11.20;86.50
16728;DHT22;8482;54.396;18.590;2023-04-26T13:25:37;11.20;87.40
16728;DHT22;8482;54.396;18.590;2023-04-26T13:28:03;11.10;87.60
16728;DHT22;8482;54.396;18.590;2023-04-26T13:30:29;11.20;84.20
16728;DHT22;8482;54.396;18.590;2023-04-26T13:32:55;11.10;83.50
16728;DHT22;8482;54.396;18.590;2023-04-26T13:35:22;11.10;84.10
16728;DHT22;8482;54.396;18.590;2023-04-26T13:37:48;11.20;83.50
16728;DHT22;8482;54.396;18.590;2023-04-26T13:40:14;11.30;82.80
16728;DHT22;8482;54.396;18.590;2023-04-26T13:42:40;11.40;82.00
16728;DHT22;8482;54.396;18.590;2023-04-26T13:45:06;11.60;82.20
16728;DHT22;8482;54.396;18.590;2023-04-26T13:47:36;11.90;81.20
16728;DHT22;8482;54.396;18.590;2023-04-26T13:50:02;12.00;78.60
16728;DHT22;8482;54.396;18.590;2023-04-26T13:52:28;12.10;76.80
16728;DHT22;8482;54.396;18.590;2023-04-26T13:54:54;12.10;75.10
16728;DHT22;8482;54.396;18.590;2023-04-26T13:57:20;12.10;74.40
16728;DHT22;8482;54.396;18.590;2023-04-26T13:59:46;12.10;74.50
16728;DHT22;8482;54.396;18.590;2023-04-26T14:02:12;12.10;74.90
16728;DHT22;8482;54.396;18.590;2023-04-26T14:04:39;12.10;74.40
16728;DHT22;8482;54.396;18.590;2023-04-26T14:07:05;12.20;72.50
16728;DHT22;8482;54.396;18.590;2023-04-26T14:09:34;12.30;72.80
16728;DHT22;8482;54.396;18.590;2023-04-26T14:11:59;12.50;73.40
16728;DHT22;8482;54.396;18.590;2023-04-26T14:14:25;12.60;72.00
16728;DHT22;8482;54.396;18.590;2023-04-26T14:16:51;12.80;72.00
16728;DHT22;8482;54.396;18.590;2023-04-26T14:19:17;13.00;71.60
16728;DHT22;8482;54.396;18.590;2023-04-26T14:21:43;13.10;70.80
16728;DHT22;8482;54.396;18.590;2023-04-26T14:24:09;13.20;69.90
16728;DHT22;8482;54.396;18.590;2023-04-26T14:26:36;13.40;69.90
16728;DHT22;8482;54.396;18.590;2023-04-26T14:29:02;13.60;67.90
16728;DHT22;8482;54.396;18.590;2023-04-26T14:31:29;13.80;68.40
16728;DHT22;8482;54.396;18.590;2023-04-26T14:33:56;14.10;68.40
16728;DHT22;8482;54.396;18.590;2023-04-26T14:36:22;14.40;65.80
16728;DHT22;8482;54.396;18.590;2023-04-26T14:38:48;14.60;66.30
16728;DHT22;8482;54.396;18.590;2023-04-26T14:41:15;14.80;65.00
16728;DHT22;8482;54.396;18.590;2023-04-26T14:43:42;15.10;64.10
16728;DHT22;8482;54.396;18.590;2023-04-26T14:46:13;15.30;63.20
16728;DHT22;8482;54.396;18.590;2023-04-26T14:48:39;15.50;62.90
16728;DHT22;8482;54.396;18.590;2023-04-26T14:51:05;15.70;63.40
16728;DHT22;8482;54.396;18.590;2023-04-26T14:53:31;15.70;60.20
16728;DHT22;8482;54.396;18.590;2023-04-26T14:55:58;15.60;61.30
16728;DHT22;8482;54.396;18.590;2023-04-26T14:58:25;15.70;61.90
16728;DHT22;8482;54.396;18.590;2023-04-26T15:00:52;15.80;61.30
16728;DHT22;8482;54.396;18.590;2023-04-26T15:03:18;15.90;61.20
16728;DHT22;8482;54.396;18.590;2023-04-26T15:05:45;16.10;59.90
16728;DHT22;8482;54.396;18.590;2023-04-26T15:08:11;16.20;59.60
16728;DHT22;8482;54.396;18.590;2023-04-26T15:10:37;16.40;59.40
16728;DHT22;8482;54.396;18.590;2023-04-26T15:13:03;16.50;58.70
16728;DHT22;8482;54.396;18.590;2023-04-26T15:15:29;16.50;57.30
16728;DHT22;8482;54.396;18.590;2023-04-26T15:17:55;16.60;57.50
16728;DHT22;8482;54.396;18.590;2023-04-26T15:20:21;16.70;56.90
16728;DHT22;8482;54.396;18.590;2023-04-26T15:22:48;16.70;57.00
16728;DHT22;8482;54.396;18.590;2023-04-26T15:25:15;16.70;56.80
16728;DHT22;8482;54.396;18.590;2023-04-26T15:27:40;16.80;56.10
16728;DHT22;8482;54.396;18.590;2023-04-26T15:30:07;16.80;55.90
16728;DHT22;8482;54.396;18.590;2023-04-26T15:32:34;16.70;55.70
16728;DHT22;8482;54.396;18.590;2023-04-26T15:35:00;16.70;54.50
16728;DHT22;8482;54.396;18.590;2023-04-26T15:37:26;16.50;55.20
16728;DHT22;8482;54.396;18.590;2023-04-26T15:39:52;16.50;55.70
16728;DHT22;8482;54.396;18.590;2023-04-26T15:42:18;16.40;56.00
16728;DHT22;8482;54.396;18.590;2023-04-26T15:44:44;16.40;56.40
16728;DHT22;8482;54.396;18.590;2023-04-26T15:47:10;16.30;56.30
16728;DHT22;8482;54.396;18.590;2023-04-26T15:49:36;16.20;56.70
16728;DHT22;8482;54.396;18.590;2023-04-26T15:52:02;16.10;56.70
16728;DHT22;8482;54.396;18.590;2023-04-26T15:54:28;15.90;57.10
16728;DHT22;8482;54.396;18.590;2023-04-26T15:56:53;15.80;57.50
16728;DHT22;8482;54.396;18.590;2023-04-26T15:59:20;15.70;58.00
16728;DHT22;8482;54.396;18.590;2023-04-26T16:01:46;15.70;58.00
16728;DHT22;8482;54.396;18.590;2023-04-26T16:04:12;15.50;58.10
16728;DHT22;8482;54.396;18.590;2023-04-26T16:06:38;15.40;58.80
16728;DHT22;8482;54.396;18.590;2023-04-26T16:09:04;15.30;58.40
16728;DHT22;8482;54.396;18.590;2023-04-26T16:11:33;15.20;58.50
16728;DHT22;8482;54.396;18.590;2023-04-26T16:13:59;15.00;58.80
16728;DHT22;8482;54.396;18.590;2023-04-26T16:16:25;15.00;59.60
16728;DHT22;8482;54.396;18.590;2023-04-26T16:18:51;15.00;59.50
16728;DHT22;8482;54.396;18.590;2023-04-26T16:21:17;15.00;59.70
16728;DHT22;8482;54.396;18.590;2023-04-26T16:23:43;14.90;59.50
16728;DHT22;8482;54.396;18.590;2023-04-26T16:26:09;14.80;59.60
16728;DHT22;8482;54.396;18.590;2023-04-26T16:28:36;14.60;59.90
16728;DHT22;8482;54.396;18.590;2023-04-26T16:31:02;14.40;60.00
16728;DHT22;8482;54.396;18.590;2023-04-26T16:33:28;14.30;60.00
16728;DHT22;8482;54.396;18.590;2023-04-26T16:35:54;14.00;60.10
16728;DHT22;8482;54.396;18.590;2023-04-26T16:38:20;13.80;60.90
16728;DHT22;8482;54.396;18.590;2023-04-26T16:40:57;13.70;61.40
16728;DHT22;8482;54.396;18.590;2023-04-26T16:43:26;13.60;61.70
16728;DHT22;8482;54.396;18.590;2023-04-26T16:46:11;13.50;61.60
16728;DHT22;8482;54.396;18.590;2023-04-26T16:48:38;13.40;62.40
16728;DHT22;8482;54.396;18.590;2023-04-26T16:51:05;13.20;63.20
16728;DHT22;8482;54.396;18.590;2023-04-26T16:53:31;13.00;63.80
16728;DHT22;8482;54.396;18.590;2023-04-26T16:55:59;12.90;64.40
16728;DHT22;8482;54.396;18.590;2023-04-26T16:58:25;12.80;64.70
16728;DHT22;8482;54.396;18.590;2023-04-26T17:00:51;12.80;64.30
16728;DHT22;8482;54.396;18.590;2023-04-26T17:03:17;12.70;64.00
16728;DHT22;8482;54.396;18.590;2023-04-26T17:05:45;12.60;64.50
16728;DHT22;8482;54.396;18.590;2023-04-26T17:08:12;12.40;64.90
16728;DHT22;8482;54.396;18.590;2023-04-26T17:10:39;12.30;65.50
16728;DHT22;8482;54.396;18.590;2023-04-26T17:13:06;12.20;66.10
16728;DHT22;8482;54.396;18.590;2023-04-26T17:15:33;12.00;66.40
16728;DHT22;8482;54.396;18.590;2023-04-26T17:18:01;11.90;66.90
16728;DHT22;8482;54.396;18.590;2023-04-26T17:20:29;11.80;67.40
16728;DHT22;8482;54.396;18.590;2023-04-26T17:22:59;11.70;67.90
16728;DHT22;8482;54.396;18.590;2023-04-26T17:25:26;11.60;68.30
16728;DHT22;8482;54.396;18.590;2023-04-26T17:27:53;11.60;68.60
16728;DHT22;8482;54.396;18.590;2023-04-26T17:30:20;11.50;68.80
16728;DHT22;8482;54.396;18.590;2023-04-26T17:32:46;11.40;69.40
16728;DHT22;8482;54.396;18.590;2023-04-26T17:35:13;11.30;69.80
16728;DHT22;8482;54.396;18.590;2023-04-26T17:37:39;11.20;70.20
16728;DHT22;8482;54.396;18.590;2023-04-26T17:40:07;11.20;69.70
16728;DHT22;8482;54.396;18.590;2023-04-26T17:42:33;11.10;70.10
16728;DHT22;8482;54.396;18.590;2023-04-26T17:44:59;11.10;70.50
16728;DHT22;8482;54.396;18.590;2023-04-26T17:47:29;11.00;70.60
16728;DHT22;8482;54.396;18.590;2023-04-26T17:49:55;10.90;70.60
16728;DHT22;8482;54.396;18.590;2023-04-26T17:52:21;10.90;71.00
16728;DHT22;8482;54.396;18.590;2023-04-26T17:54:47;10.80;71.20
16728;DHT22;8482;54.396;18.590;2023-04-26T17:57:13;10.80;71.50
16728;DHT22;8482;54.396;18.590;2023-04-26T17:59:42;10.80;71.80
16728;DHT22;8482;54.396;18.590;2023-04-26T18:02:08;10.70;72.20
16728;DHT22;8482;54.396;18.590;2023-04-26T18:04:34;10.70;72.40
16728;DHT22;8482;54.396;18.590;2023-04-26T18:07:00;10.60;72.60
16728;DHT22;8482;54.396;18.590;2023-04-26T18:09:26;10.60;72.80
16728;DHT22;8482;54.396;18.590;2023-04-26T18:11:52;10.50;73.20
16728;DHT22;8482;54.396;18.590;2023-04-26T18:14:18;10.50;73.50
16728;DHT22;8482;54.396;18.590;2023-04-26T18:16:43;10.40;73.70
16728;DHT22;8482;54.396;18.590;2023-04-26T18:19:09;10.40;74.00
16728;DHT22;8482;54.396;18.590;2023-04-26T18:21:35;10.40;74.70
16728;DHT22;8482;54.396;18.590;2023-04-26T18:24:01;10.40;75.40
16728;DHT22;8482;54.396;18.590;2023-04-26T18:26:28;10.30;75.20
16728;DHT22;8482;54.396;18.590;2023-04-26T18:28:54;10.30;75.10
16728;DHT22;8482;54.396;18.590;2023-04-26T18:31:20;10.30;75.40
16728;DHT22;8482;54.396;18.590;2023-04-26T18:33:47;10.20;75.50
16728;DHT22;8482;54.396;18.590;2023-04-26T18:36:14;10.20;75.80
16728;DHT22;8482;54.396;18.590;2023-04-26T18:38:40;10.20;76.00
16728;DHT22;8482;54.396;18.590;2023-04-26T18:41:06;10.20;76.10
16728;DHT22;8482;54.396;18.590;2023-04-26T18:43:32;10.10;76.30
16728;DHT22;8482;54.396;18.590;2023-04-26T18:45:58;10.10;76.50
16728;DHT22;8482;54.396;18.590;2023-04-26T18:48:24;10.00;76.70
16728;DHT22;8482;54.396;18.590;2023-04-26T18:50:51;10.00;76.90
16728;DHT22;8482;54.396;18.590;2023-04-26T18:53:18;9.90;77.30
16728;DHT22;8482;54.396;18.590;2023-04-26T18:55:46;9.90;77.60
16728;DHT22;8482;54.396;18.590;2023-04-26T18:58:12;9.90;77.80
16728;DHT22;8482;54.396;18.590;2023-04-26T19:00:39;9.80;78.00
16728;DHT22;8482;54.396;18.590;2023-04-26T19:03:05;9.80;78.10
16728;DHT22;8482;54.396;18.590;2023-04-26T19:05:30;9.80;79.00
16728;DHT22;8482;54.396;18.590;2023-04-26T19:07:56;9.80;78.40
16728;DHT22;8482;54.396;18.590;2023-04-26T19:10:22;9.80;78.60
16728;DHT22;8482;54.396;18.590;2023-04-26T19:12:48;9.70;78.60
16728;DHT22;8482;54.396;18.590;2023-04-26T19:15:14;9.70;78.90
16728;DHT22;8482;54.396;18.590;2023-04-26T19:17:40;9.70;79.10
16728;DHT22;8482;54.396;18.590;2023-04-26T19:20:07;9.60;79.20
16728;DHT22;8482;54.396;18.590;2023-04-26T19:22:37;9.60;79.30
16728;DHT22;8482;54.396;18.590;2023-04-26T19:25:03;9.60;79.70
16728;DHT22;8482;54.396;18.590;2023-04-26T19:27:30;9.60;79.70
16728;DHT22;8482;54.396;18.590;2023-04-26T19:29:58;9.60;79.90
16728;DHT22;8482;54.396;18.590;2023-04-26T19:32:24;9.50;80.10
16728;DHT22;8482;54.396;18.590;2023-04-26T19:34:50;9.50;80.40
16728;DHT22;8482;54.396;18.590;2023-04-26T19:37:16;9.40;80.40
16728;DHT22;8482;54.396;18.590;2023-04-26T19:39:43;9.40;81.30
16728;DHT22;8482;54.396;18.590;2023-04-26T19:42:09;9.30;80.70
16728;DHT22;8482;54.396;18.590;2023-04-26T19:44:35;9.30;81.00
16728;DHT22;8482;54.396;18.590;2023-04-26T19:47:02;9.30;81.20
16728;DHT22;8482;54.396;18.590;2023-04-26T19:49:28;9.30;81.50
16728;DHT22;8482;54.396;18.590;2023-04-26T19:51:54;9.20;81.70
16728;DHT22;8482;54.396;18.590;2023-04-26T19:54:20;9.20;82.10
16728;DHT22;8482;54.396;18.590;2023-04-26T19:56:46;9.10;82.40
16728;DHT22;8482;54.396;18.590;2023-04-26T19:59:12;9.10;82.60
16728;DHT22;8482;54.396;18.590;2023-04-26T20:01:38;9.10;82.90
16728;DHT22;8482;54.396;18.590;2023-04-26T20:04:04;9.10;83.20
16728;DHT22;8482;54.396;18.590;2023-04-26T20:06:29;9.00;83.40
16728;DHT22;8482;54.396;18.590;2023-04-26T20:08:57;9.00;83.70
16728;DHT22;8482;54.396;18.590;2023-04-26T20:11:24;8.90;84.00
16728;DHT22;8482;54.396;18.590;2023-04-26T20:13:50;8.90;84.30
16728;DHT22;8482;54.396;18.590;2023-04-26T20:16:16;8.90;84.60
16728;DHT22;8482;54.396;18.590;2023-04-26T20:18:41;8.90;84.90
16728;DHT22;8482;54.396;18.590;2023-04-26T20:21:07;8.90;85.20
16728;DHT22;8482;54.396;18.590;2023-04-26T20:23:33;8.90;85.40
16728;DHT22;8482;54.396;18.590;2023-04-26T20:25:59;8.80;85.60
16728;DHT22;8482;54.396;18.590;2023-04-26T20:28:25;8.80;85.80
16728;DHT22;8482;54.396;18.590;2023-04-26T20:30:51;8.80;86.00